createdAt,value
2022-09-05T00:02:03.572Z,99.60
2022-09-05T00:05:02.942Z,99.70
2022-09-05T00:07:59.163Z,99.70
2022-09-05T00:10:37.451Z,99.60
2022-09-05T00:13:34.621Z,99.60
2022-09-05T00:16:30.266Z,99.70
2022-09-05T00:24:23.408Z,99.70
2022-09-05T00:24:34.404Z,99.80
2022-09-05T00:25:30.711Z,99.80
2022-09-05T00:28:26.241Z,99.80
2022-09-05T00:31:53.454Z,99.90
2022-09-05T00:34:16.222Z,99.80
2022-09-05T00:36:50.293Z,99.90
2022-09-05T00:39:29.787Z,99.90
2022-09-05T00:42:01.350Z,99.90
2022-09-05T00:44:32.819Z,99.80
2022-09-05T00:47:23.343Z,99.80
2022-09-05T00:50:00.235Z,99.80
2022-09-05T00:53:06.376Z,99.70
2022-09-05T00:55:39.808Z,99.60
2022-09-05T00:58:34.025Z,99.60
2022-09-05T01:01:21.108Z,99.50
2022-09-05T01:04:06.191Z,99.50
2022-09-05T01:06:57.232Z,99.40
2022-09-05T01:09:50.070Z,99.30
2022-09-05T01:12:25.767Z,99.30
2022-09-05T01:15:16.192Z,99.30
2022-09-05T01:17:54.915Z,99.20
2022-09-05T01:20:49.836Z,99.20
2022-09-05T01:23:31.845Z,99.20
2022-09-05T01:26:10.833Z,99.10
2022-09-05T01:29:17.872Z,99.10
2022-09-05T01:32:21.262Z,99.10
2022-09-05T01:34:56.911Z,99.10
2022-09-05T01:37:44.418Z,99.20
2022-09-05T01:40:19.689Z,99.10
2022-09-05T01:43:17.816Z,99.10
2022-09-05T01:45:55.284Z,99.10
2022-09-05T01:48:27.423Z,99.10
2022-09-05T01:51:28.909Z,99.20
2022-09-05T01:54:24.269Z,99.20
2022-09-05T01:57:04.016Z,99.20
2022-09-05T01:59:59.272Z,99.20
2022-09-05T02:02:35.170Z,99.20
2022-09-05T02:05:20.744Z,99.30
2022-09-05T02:08:20.036Z,99.40
2022-09-05T02:10:56.146Z,99.40
2022-09-05T02:13:35.177Z,99.40
2022-09-05T02:16:13.273Z,99.40
2022-09-05T02:19:07.332Z,99.30
2022-09-05T02:21:36.701Z,99.40
2022-09-05T02:24:22.734Z,99.40
2022-09-05T02:27:06.067Z,99.40
2022-09-05T02:29:38.942Z,99.30
2022-09-05T02:32:21.152Z,99.30
2022-09-05T02:34:48.010Z,99.30
2022-09-05T02:38:56.730Z,99.30
2022-09-05T02:45:12.504Z,99.30
2022-09-05T02:45:19.716Z,99.30
2022-09-05T02:47:22.534Z,99.40
2022-09-05T02:53:25.099Z,99.40
2022-09-05T02:57:35.920Z,99.50
2022-09-05T02:57:36.859Z,99.50
2022-09-05T02:59:40.425Z,99.50
2022-09-05T03:02:25.545Z,99.50
2022-09-05T03:05:45.683Z,99.60
2022-09-05T03:08:24.572Z,99.60
2022-09-05T03:11:27.074Z,99.70
2022-09-05T03:14:18.880Z,99.70
2022-09-05T03:17:04.352Z,99.70
2022-09-05T03:20:04.792Z,99.70
2022-09-05T03:22:57.600Z,99.70
2022-09-05T03:25:50.157Z,99.70
2022-09-05T03:28:41.523Z,99.70
2022-09-05T03:31:30.108Z,99.70
2022-09-05T03:34:15.088Z,99.80
2022-09-05T03:36:41.979Z,99.80
2022-09-05T03:39:30.314Z,99.80
2022-09-05T03:42:19.018Z,99.90
2022-09-05T03:44:49.552Z,99.90
2022-09-05T03:47:42.271Z,99.90
2022-09-05T03:57:06.563Z,99.90
2022-09-05T03:57:17.966Z,99.90
2022-09-05T03:57:26.846Z,99.90
2022-09-05T03:59:47.596Z,99.90
2022-09-05T04:06:56.902Z,99.90
2022-09-05T04:08:28.341Z,99.90
2022-09-05T04:08:41.014Z,99.90
2022-09-05T04:11:12.784Z,99.90
2022-09-05T04:14:00.210Z,99.90
2022-09-05T04:16:46.746Z,99.90
2022-09-05T04:19:21.355Z,99.90
2022-09-05T04:22:18.332Z,99.90
2022-09-05T04:25:00.466Z,99.90
2022-09-05T04:27:46.484Z,99.90
2022-09-05T04:30:38.307Z,99.90
2022-09-05T04:33:10.106Z,99.90
2022-09-05T04:36:10.839Z,99.90
2022-09-05T04:38:45.600Z,99.90
2022-09-05T04:41:14.173Z,99.90
2022-09-05T04:43:50.936Z,99.90
2022-09-05T04:46:25.234Z,99.90
2022-09-05T04:49:10.905Z,99.90
2022-09-05T04:52:00.940Z,99.90
2022-09-05T04:54:40.096Z,99.90
2022-09-05T04:57:16.267Z,99.90
2022-09-05T05:00:01.212Z,99.90
2022-09-05T05:06:08.646Z,99.90
2022-09-05T05:06:09.426Z,99.90
2022-09-05T05:08:43.006Z,99.90
2022-09-05T05:16:00.344Z,99.90
2022-09-05T05:17:55.063Z,99.90
2022-09-05T05:18:14.998Z,99.90
2022-09-05T05:20:42.018Z,99.90
2022-09-05T05:23:18.102Z,99.90
2022-09-05T05:25:55.747Z,99.90
2022-09-05T05:28:27.328Z,99.90
2022-09-05T05:31:01.274Z,99.90
2022-09-05T05:33:35.070Z,99.90
2022-09-05T05:36:06.871Z,99.90
2022-09-05T05:38:53.744Z,99.90
2022-09-05T05:41:29.600Z,99.90
2022-09-05T05:43:57.691Z,99.90
2022-09-05T05:46:35.365Z,99.90
2022-09-05T05:49:15.851Z,99.90
2022-09-05T05:52:01.656Z,99.80
2022-09-05T05:54:42.631Z,99.90
2022-09-05T05:57:23.139Z,99.80
2022-09-05T06:00:05.418Z,99.80
2022-09-05T06:03:24.771Z,99.70
2022-09-05T06:06:14.414Z,99.60
2022-09-05T06:11:27.879Z,99.40
2022-09-05T06:14:55.457Z,99.40
2022-09-05T06:15:22.077Z,99.30
2022-09-05T06:18:11.215Z,99.20
2022-09-05T06:22:09.279Z,99.10
2022-09-05T06:23:57.526Z,99.10
2022-09-05T06:26:52.576Z,98.90
2022-09-05T06:29:38.656Z,98.80
2022-09-05T06:32:24.438Z,98.70
2022-09-05T06:35:04.379Z,98.60
2022-09-05T06:37:32.223Z,98.50
2022-09-05T06:40:18.057Z,98.40
2022-09-05T06:43:23.884Z,98.50
2022-09-05T06:46:10.527Z,98.50
2022-09-05T06:49:31.312Z,98.50
2022-09-05T06:51:44.796Z,98.40
2022-09-05T06:54:32.226Z,98.30
2022-09-05T06:57:04.525Z,98.10
2022-09-05T06:59:37.447Z,98.00
2022-09-05T07:02:58.260Z,97.50
2022-09-05T07:05:44.578Z,97.30
2022-09-05T07:08:37.304Z,97.10
2022-09-05T07:11:21.415Z,96.50
2022-09-05T07:13:55.371Z,96.40
2022-09-05T07:16:37.992Z,95.90
2022-09-05T07:19:27.097Z,95.80
2022-09-05T07:22:29.458Z,95.60
2022-09-05T07:25:08.849Z,95.30
2022-09-05T07:28:26.191Z,95.00
2022-09-05T07:30:40.340Z,95.00
2022-09-05T07:33:08.583Z,94.60
2022-09-05T07:35:41.830Z,94.00
2022-09-05T07:38:14.019Z,93.70
2022-09-05T07:41:16.279Z,93.50
2022-09-05T07:43:46.839Z,93.40
2022-09-05T07:46:18.177Z,93.30
2022-09-05T07:48:50.323Z,93.10
2022-09-05T07:56:56.435Z,93.00
2022-09-05T07:57:15.884Z,92.90
2022-09-05T07:57:31.173Z,92.80
2022-09-05T08:00:25.977Z,92.90
2022-09-05T08:02:55.285Z,93.10
2022-09-05T08:05:34.365Z,93.20
2022-09-05T08:08:08.735Z,93.40
2022-09-05T08:11:23.492Z,93.50
2022-09-05T08:13:46.634Z,93.50
2022-09-05T08:16:23.436Z,93.90
2022-09-05T08:19:03.190Z,93.30
2022-09-05T08:21:44.015Z,93.40
2022-09-05T08:24:13.127Z,93.40
2022-09-05T08:26:48.487Z,93.40
2022-09-05T08:29:34.021Z,93.40
2022-09-05T08:32:36.712Z,93.30
2022-09-05T08:35:38.626Z,92.80
2022-09-05T08:38:07.406Z,91.90
2022-09-05T08:40:41.781Z,92.10
2022-09-05T08:46:37.151Z,91.20
2022-09-05T08:46:49.141Z,90.80
2022-09-05T08:49:36.397Z,90.70
2022-09-05T08:52:05.559Z,90.70
2022-09-05T08:54:35.945Z,90.70
2022-09-05T08:57:41.054Z,90.90
2022-09-05T09:00:20.221Z,91.00
2022-09-05T09:03:06.109Z,91.20
2022-09-05T09:06:14.507Z,91.30
2022-09-05T09:09:10.724Z,90.90
2022-09-05T09:12:09.025Z,90.90
2022-09-05T09:14:54.239Z,90.70
2022-09-05T09:17:28.448Z,90.20
2022-09-05T09:20:33.650Z,89.40
2022-09-05T09:23:32.181Z,88.40
2022-09-05T09:26:17.400Z,87.30
2022-09-05T09:29:19.993Z,87.50
2022-09-05T09:32:02.935Z,87.70
2022-09-05T09:34:45.716Z,88.00
2022-09-05T09:37:35.616Z,87.80
2022-09-05T09:40:34.935Z,87.90
2022-09-05T09:43:10.680Z,88.40
2022-09-05T09:45:58.662Z,88.50
2022-09-05T09:48:40.660Z,89.20
2022-09-05T09:51:26.961Z,89.10
2022-09-05T09:54:22.455Z,89.20
2022-09-05T09:57:26.995Z,89.70
2022-09-05T10:00:10.136Z,90.00
2022-09-05T10:07:47.917Z,90.10
2022-09-05T10:10:44.733Z,90.00
2022-09-05T10:10:50.601Z,90.10
2022-09-05T10:15:30.711Z,89.60
2022-09-05T10:18:24.148Z,89.50
2022-09-05T10:21:25.486Z,89.20
2022-09-05T10:24:01.185Z,89.10
2022-09-05T10:27:01.960Z,89.00
2022-09-05T10:29:42.783Z,88.70
2022-09-05T10:35:08.325Z,87.90
2022-09-05T10:35:35.695Z,87.40
2022-09-05T10:38:12.578Z,87.70
2022-09-05T10:41:13.210Z,87.70
2022-09-05T10:43:34.709Z,87.20
2022-09-05T10:46:47.020Z,85.90
2022-09-05T10:49:13.827Z,85.40
2022-09-05T10:51:56.252Z,85.30
2022-09-05T10:54:31.167Z,83.80
2022-09-05T10:57:16.712Z,82.80
2022-09-05T11:02:21.956Z,80.60
2022-09-05T11:02:46.509Z,79.70
2022-09-05T11:05:18.175Z,78.40
2022-09-05T11:07:45.054Z,78.10
2022-09-05T11:10:33.739Z,77.60
2022-09-05T11:13:11.383Z,77.00
2022-09-05T11:15:47.884Z,77.40
2022-09-05T11:18:56.251Z,78.60
2022-09-05T11:21:42.795Z,78.80
2022-09-05T11:24:27.443Z,79.10
2022-09-05T11:27:23.347Z,79.50
2022-09-05T11:29:59.512Z,79.80
2022-09-05T11:36:57.890Z,79.90
2022-09-05T11:40:00.000Z,81.30
2022-09-05T11:40:05.889Z,82.90
2022-09-05T11:41:50.502Z,83.70
2022-09-05T11:44:39.055Z,84.30
2022-09-05T11:47:28.167Z,85.10
2022-09-05T11:50:00.256Z,85.50
2022-09-05T11:53:05.730Z,85.90
2022-09-05T11:55:50.232Z,86.20
2022-09-05T11:58:44.825Z,85.50
2022-09-05T12:01:50.690Z,86.30
2022-09-05T12:05:50.307Z,86.30
2022-09-05T12:08:11.608Z,85.70
2022-09-05T12:11:09.960Z,85.60
2022-09-05T12:14:25.465Z,86.00
2022-09-05T12:16:55.512Z,87.30
2022-09-05T12:19:54.805Z,88.40
2022-09-05T12:22:29.618Z,89.30
2022-09-05T12:25:26.264Z,90.00
2022-09-05T12:29:27.901Z,90.40
2022-09-05T12:33:21.983Z,90.70
2022-09-05T12:36:10.173Z,91.00
2022-09-05T12:40:44.684Z,91.20
2022-09-05T12:41:27.291Z,91.50
2022-09-05T12:43:39.314Z,91.80
2022-09-05T12:48:50.271Z,92.20
2022-09-05T12:51:46.199Z,92.30
2022-09-05T12:54:33.697Z,92.40
2022-09-05T13:01:17.458Z,92.60
2022-09-05T13:03:05.715Z,92.70
2022-09-05T13:03:27.041Z,92.80
2022-09-05T13:06:24.832Z,92.90
2022-09-05T13:09:07.300Z,93.20
2022-09-05T13:14:58.211Z,93.70
2022-09-05T13:15:05.992Z,94.10
2022-09-05T13:17:43.077Z,94.70
2022-09-05T13:20:25.932Z,94.90
2022-09-05T13:22:53.831Z,94.90
2022-09-05T13:25:27.227Z,94.90
2022-09-05T13:28:01.701Z,95.10
2022-09-05T13:37:55.196Z,95.30
2022-09-05T13:38:01.204Z,95.20
2022-09-05T13:38:07.905Z,95.40
2022-09-05T13:39:28.171Z,95.50
2022-09-05T13:42:01.603Z,95.50
2022-09-05T13:44:30.332Z,95.30
2022-09-05T13:47:09.061Z,95.30
2022-09-05T13:50:05.168Z,95.30
2022-09-05T13:52:39.455Z,95.30
2022-09-05T13:55:24.540Z,95.40
2022-09-05T13:58:07.389Z,95.30
2022-09-05T14:00:35.535Z,95.30
2022-09-05T14:03:40.315Z,95.30
2022-09-05T14:06:45.061Z,95.50
2022-09-05T14:09:38.548Z,95.70
2022-09-05T14:12:12.342Z,95.90
2022-09-05T14:17:53.231Z,96.10
2022-09-05T14:20:42.996Z,96.30
2022-09-05T14:23:15.943Z,96.50
2022-09-05T14:25:50.236Z,96.70
2022-09-05T14:28:31.666Z,96.90
2022-09-05T14:36:23.542Z,97.00
2022-09-05T14:37:54.703Z,97.20
2022-09-05T14:38:09.732Z,97.40
2022-09-05T14:41:02.823Z,97.40
2022-09-05T14:44:08.022Z,97.50
2022-09-05T14:46:49.734Z,97.60
2022-09-05T14:49:29.753Z,97.60
2022-09-05T14:51:58.426Z,97.60
2022-09-05T15:02:09.654Z,97.60
2022-09-05T15:02:48.938Z,97.70
2022-09-05T15:03:05.264Z,97.70
2022-09-05T15:05:41.751Z,97.70
2022-09-05T15:08:24.081Z,97.60
2022-09-05T15:12:16.180Z,97.70
2022-09-05T15:14:11.228Z,97.80
2022-09-05T15:16:43.815Z,97.90
2022-09-05T15:19:11.637Z,97.80
2022-09-05T15:21:41.433Z,97.90
2022-09-05T15:24:24.930Z,97.90
2022-09-05T15:26:56.459Z,97.90
2022-09-05T15:29:24.809Z,97.90
2022-09-05T15:32:07.592Z,98.00
2022-09-05T15:34:38.750Z,98.10
2022-09-05T15:37:23.415Z,98.30
2022-09-05T15:40:22.076Z,98.40
2022-09-05T15:42:51.523Z,98.40
2022-09-05T15:45:35.486Z,98.50
2022-09-05T15:48:14.783Z,98.60
2022-09-05T15:50:50.312Z,98.60
2022-09-05T15:53:34.324Z,98.70
2022-09-05T15:56:18.208Z,98.80
2022-09-05T15:58:54.833Z,99.00
2022-09-05T16:01:35.729Z,99.30
2022-09-05T16:09:16.606Z,99.50
2022-09-05T16:10:41.146Z,99.90
2022-09-05T16:10:50.281Z,99.90
2022-09-05T16:12:48.416Z,99.90
2022-09-05T16:18:58.608Z,99.90
2022-09-05T16:23:15.454Z,99.90
2022-09-05T16:23:19.494Z,99.90
2022-09-05T16:24:58.318Z,99.90
2022-09-05T16:27:46.933Z,99.90
2022-09-05T16:30:29.471Z,99.90
2022-09-05T16:33:21.028Z,99.90
2022-09-05T16:36:29.784Z,99.90
2022-09-05T16:39:01.851Z,99.90
2022-09-05T16:42:09.528Z,99.90
2022-09-05T16:44:45.189Z,99.90
2022-09-05T16:47:50.159Z,99.90
2022-09-05T16:50:24.179Z,99.90
2022-09-05T16:52:54.195Z,99.90
2022-09-05T16:55:37.680Z,99.90
2022-09-05T16:58:14.629Z,99.90
2022-09-05T17:01:21.085Z,99.90
2022-09-05T17:03:54.168Z,99.90
2022-09-05T17:06:45.849Z,99.90
2022-09-05T17:09:40.888Z,99.90
2022-09-05T17:12:23.663Z,99.90
2022-09-05T17:14:57.598Z,99.90
2022-09-05T17:18:19.027Z,99.90
2022-09-05T17:20:21.687Z,99.90
2022-09-05T17:28:05.184Z,99.90
2022-09-05T17:29:25.253Z,99.90
2022-09-05T17:29:38.060Z,99.90
2022-09-05T17:31:55.122Z,99.90
2022-09-05T17:34:52.683Z,99.90
2022-09-05T17:37:37.701Z,99.90
2022-09-05T17:40:38.560Z,99.90
2022-09-05T17:43:08.916Z,99.90
2022-09-05T17:46:00.907Z,99.90
2022-09-05T17:48:46.390Z,99.90
2022-09-05T17:51:27.311Z,99.90
2022-09-05T17:54:21.854Z,99.90
2022-09-05T17:56:49.934Z,99.90
2022-09-05T17:59:19.945Z,99.90
2022-09-05T18:02:22.308Z,99.90
2022-09-05T18:04:54.522Z,99.90
2022-09-05T18:07:30.071Z,99.90
2022-09-05T18:10:14.536Z,99.90
2022-09-05T18:15:35.150Z,99.90
2022-09-05T18:18:05.983Z,99.90
2022-09-05T18:21:21.125Z,99.90
2022-09-05T18:24:03.806Z,99.90
2022-09-05T18:26:40.075Z,99.90
2022-09-05T18:29:57.570Z,99.90
2022-09-05T18:32:40.637Z,99.90
2022-09-05T18:35:37.839Z,99.90
2022-09-05T18:38:50.012Z,99.90
2022-09-05T18:41:24.713Z,99.90
2022-09-05T18:44:13.267Z,99.90
2022-09-05T18:46:53.067Z,99.90
2022-09-05T18:50:22.312Z,99.90
2022-09-05T18:52:41.987Z,99.90
2022-09-05T18:56:14.215Z,99.90
2022-09-05T18:58:26.664Z,99.90
2022-09-05T19:00:55.377Z,99.90
2022-09-05T19:03:31.107Z,99.90
2022-09-05T19:06:36.413Z,99.90
2022-09-05T19:08:57.490Z,99.90
2022-09-05T19:11:33.470Z,99.90
2022-09-05T19:14:28.760Z,99.90
2022-09-05T19:17:27.409Z,99.90
2022-09-05T19:20:30.580Z,99.90
2022-09-05T19:23:11.209Z,99.90
2022-09-05T19:25:40.914Z,99.90
2022-09-05T19:31:49.186Z,99.90
2022-09-05T19:36:53.901Z,99.90
2022-09-05T19:37:12.159Z,99.90
2022-09-05T19:37:37.329Z,99.90
2022-09-05T19:44:46.198Z,99.90
2022-09-05T19:47:28.118Z,99.90
2022-09-05T19:47:39.125Z,99.90
2022-09-05T19:50:55.156Z,99.90
2022-09-05T19:53:22.371Z,99.90
2022-09-05T19:55:49.997Z,99.90
2022-09-05T19:58:22.328Z,99.90
2022-09-05T20:01:05.049Z,99.90
2022-09-05T20:03:38.556Z,99.90
2022-09-05T20:06:24.730Z,99.90
2022-09-05T20:09:18.389Z,99.90
2022-09-05T20:11:49.832Z,99.90
2022-09-05T20:14:30.575Z,99.90
2022-09-05T20:17:01.464Z,99.90
2022-09-05T20:19:35.179Z,99.90
2022-09-05T20:22:40.370Z,99.90
2022-09-05T20:24:55.351Z,99.90
2022-09-05T20:27:28.200Z,99.90
2022-09-05T20:29:59.947Z,99.90
2022-09-05T20:32:50.534Z,99.90
2022-09-05T20:40:04.000Z,99.90
2022-09-05T20:43:21.003Z,99.90
2022-09-05T20:43:31.790Z,99.90
2022-09-05T20:44:21.044Z,99.90
2022-09-05T20:54:06.346Z,99.90
2022-09-05T20:54:13.409Z,99.90
2022-09-05T20:54:18.231Z,99.90
2022-09-05T20:55:45.482Z,99.90
2022-09-05T20:58:20.860Z,99.90
2022-09-05T21:01:20.864Z,99.90
2022-09-05T21:04:02.045Z,99.90
2022-09-05T21:06:36.881Z,99.90
2022-09-05T21:09:26.063Z,99.90
2022-09-05T21:11:56.174Z,99.90
2022-09-05T21:14:26.707Z,99.90
2022-09-05T21:17:16.052Z,99.90
2022-09-05T21:19:53.479Z,99.90
2022-09-05T21:22:21.113Z,99.90
2022-09-05T21:24:48.751Z,99.90
2022-09-05T21:27:24.217Z,99.90
2022-09-05T21:29:58.841Z,99.90
2022-09-05T21:32:36.145Z,99.90
2022-09-05T21:35:15.433Z,99.90
2022-09-05T21:37:56.644Z,99.90
2022-09-05T21:40:24.120Z,99.90
2022-09-05T21:47:38.255Z,99.90
2022-09-05T21:47:41.523Z,99.90
2022-09-05T21:48:28.492Z,99.90
2022-09-05T21:50:59.520Z,99.90
2022-09-05T21:59:13.418Z,99.90
2022-09-05T21:59:28.803Z,99.90
2022-09-05T21:59:46.667Z,99.90
2022-09-05T22:02:14.927Z,99.90
2022-09-05T22:04:42.147Z,99.90
2022-09-05T22:07:26.374Z,99.90
2022-09-05T22:09:59.962Z,99.90
2022-09-05T22:12:31.318Z,99.90
2022-09-05T22:15:11.485Z,99.90
2022-09-05T22:17:47.293Z,99.90
2022-09-05T22:20:17.690Z,99.90
2022-09-05T22:22:45.317Z,99.90
2022-09-05T22:25:35.893Z,99.90
2022-09-05T22:28:18.936Z,99.90
2022-09-05T22:30:45.908Z,99.90
2022-09-05T22:33:13.124Z,99.90
2022-09-05T22:35:40.965Z,99.90
2022-09-05T22:38:12.599Z,99.90
2022-09-05T22:40:42.690Z,99.90
2022-09-05T22:43:10.981Z,99.90
2022-09-05T22:45:39.265Z,99.90
2022-09-05T22:48:11.543Z,99.90
2022-09-05T22:50:39.886Z,99.90
2022-09-05T22:53:08.731Z,99.90
2022-09-05T22:55:41.159Z,99.90
2022-09-05T22:58:10.629Z,99.90
2022-09-05T23:00:37.777Z,99.90
2022-09-05T23:03:06.498Z,99.90
2022-09-05T23:05:33.936Z,99.90
2022-09-05T23:08:01.222Z,99.90
2022-09-05T23:10:29.104Z,99.90
2022-09-05T23:12:56.809Z,99.90
2022-09-05T23:15:24.313Z,99.90
2022-09-05T23:17:55.956Z,99.90
2022-09-05T23:20:24.200Z,99.90
2022-09-05T23:22:51.127Z,99.90
2022-09-05T23:25:18.308Z,99.90
2022-09-05T23:27:45.724Z,99.90
2022-09-05T23:30:13.076Z,99.90
2022-09-05T23:32:51.209Z,99.90
2022-09-05T23:35:19.359Z,99.90
2022-09-05T23:37:47.619Z,99.90
2022-09-05T23:40:17.885Z,99.90
2022-09-05T23:42:52.867Z,99.90
2022-09-05T23:45:20.024Z,99.90
2022-09-05T23:47:47.055Z,99.90
2022-09-05T23:50:15.443Z,99.90
2022-09-05T23:52:44.385Z,99.90
2022-09-05T23:55:16.005Z,99.90
2022-09-05T23:57:43.428Z,99.90
